Aérodrome :
LOGIN :

S'inscrire | Disclaimer

   EN    FR    IT 

 










Légende :    VFR   VFR Marginal   IFR   IFR Intensif   IFR Très Intensif
Visi : 
Plafond : 
>= 8 km
>= 3000ft
5 à 8 km
1000 à 3000 ft
1500m à 5 km
500 à 1000 ft
800 à 1500m
200 à 500 ft
< 800m
< 200 ft
Symboles :   Orages  Brouillard  Fortes neiges  Fortes précipitations  Vent > 20 kt
SIGMETs :   Divers  Orages  Givrage  Turbulence  Onde Orograph.  Cendres Volcan.







- Altitude de l'aérodrome : 465 ft
- Code IATA : LEJ


EDDP - Leipzig Halle

DERNIER METAR :
  • 201450Z 07015KT 2000 -SN BKN006 00/M00 Q1013 RESN BECMG 3000

METARs EXPIRÉS :
  • 201420Z 08016KT 1000 R08R/1700U R08L/1700N SN BKN006 00/M00 Q1013 BECMG 3000 NSW
  • 201350Z 08019KT 1200 R08R/P2000N R08L/P2000N SN BKN008 01/M01 Q1013 TEMPO 08020G30KT 0700 SN BKN004
  • 201320Z 08020KT 9999 BKN017 02/M01 Q1013 BECMG 4500 -SN BKN014
  • 201250Z 07018KT 9999 SCT017 02/M01 Q1013 BECMG 4500 -SN BKN014
  • 201220Z 08020KT 9999 SCT017 02/M01 Q1013 BECMG 4500 -SN BKN014

TAF TAF EDDP
Valide du 20 à 12h jusqu'au 21 à 12h UTC


201100Z 2012/2112 08020G30KT 8000 BKN015
PROB40
TEMPO 2013/2020 1900 SN BKN009
BECMG 2013/2016 07011KT BKN014
PROB30
TEMPO 2020/2109 BKN009
Pas de NOTAMs connus pour ce terrain.



MET'MAP, la Météo Aéronautique d'un coup d'oeil ! - Copyright ORBIFLY Décembre 2007 - Disclaimer

ORBIFLY MET'MAP TEAM :

Programmation & Développement : Alexandra Zaïnal
Conception & Développement : Baudouin d'Aumeries
Co-Programmation & Développement : Marc-Olivier Méhu
Soutien technique & logistique : Manuel Goepfert

Contact : metmap@orbifly.com




SOURCES & CREDITS :

   NOAA